Terminal Aerodrome Forecast
Issued by NWS

Current Version | Previous Version | Graphics & Text | Print | Product List | Glossary On
Versions: 1 2 3 4 5 6 7 8 9 10 11 12 13 14 15 16 17
348
FTUS41 KPBZ 191740
TAFMGW
TAF
KMGW 191740Z 1918/2018 21007G16KT P6SM SCT040 BKN070
     FM192000 18008KT P6SM VCTS BKN035CB
     FM200300 19008KT P6SM BKN035
     FM200900 26007KT P6SM OVC015
     FM201000 27007KT P6SM BKN008
     FM201200 29006KT P6SM BKN015=

USA.gov is the U.S. government's official web portal to all federal, state and local government web resources and services.